sensor_id;sensor_type;location;lat;lon;timestamp;P1;durP1;ratioP1;P2;durP2;ratioP2
20505;SDS011;10411;48.148;7.704;2023-03-01T00:01:47;28.50;;;26.43;;
20505;SDS011;10411;48.148;7.704;2023-03-01T00:04:26;26.50;;;24.70;;
20505;SDS011;10411;48.148;7.704;2023-03-01T00:07:10;26.33;;;24.60;;
20505;SDS011;10411;48.148;7.704;2023-03-01T00:09:48;27.03;;;25.13;;
20505;SDS011;10411;48.148;7.704;2023-03-01T00:12:17;27.10;;;25.10;;
20505;SDS011;10411;48.148;7.704;2023-03-01T00:14:52;27.40;;;25.50;;
20505;SDS011;10411;48.148;7.704;2023-03-01T00:17:24;27.43;;;25.53;;
20505;SDS011;10411;48.148;7.704;2023-03-01T00:19:50;27.33;;;25.43;;
20505;SDS011;10411;48.148;7.704;2023-03-01T00:22:21;27.93;;;25.93;;
20505;SDS011;10411;48.148;7.704;2023-03-01T00:24:53;28.73;;;26.63;;
20505;SDS011;10411;48.148;7.704;2023-03-01T00:27:22;28.50;;;26.40;;
20505;SDS011;10411;48.148;7.704;2023-03-01T00:30:14;26.90;;;25.03;;
20505;SDS011;10411;48.148;7.704;2023-03-01T00:32:56;27.20;;;25.33;;
20505;SDS011;10411;48.148;7.704;2023-03-01T00:35:45;26.63;;;24.83;;
20505;SDS011;10411;48.148;7.704;2023-03-01T00:47:06;28.00;;;26.00;;
20505;SDS011;10411;48.148;7.704;2023-03-01T00:49:35;27.63;;;25.73;;
20505;SDS011;10411;48.148;7.704;2023-03-01T00:52:16;28.90;;;26.80;;
20505;SDS011;10411;48.148;7.704;2023-03-01T00:55:10;30.17;;;27.93;;
20505;SDS011;10411;48.148;7.704;2023-03-01T00:58:08;31.43;;;28.97;;
20505;SDS011;10411;48.148;7.704;2023-03-01T01:03:24;31.73;;;29.23;;
20505;SDS011;10411;48.148;7.704;2023-03-01T01:05:51;29.87;;;27.67;;
20505;SDS011;10411;48.148;7.704;2023-03-01T01:08:17;28.37;;;26.33;;
20505;SDS011;10411;48.148;7.704;2023-03-01T01:10:44;27.83;;;25.83;;
20505;SDS011;10411;48.148;7.704;2023-03-01T01:13:10;28.13;;;26.13;;
20505;SDS011;10411;48.148;7.704;2023-03-01T01:15:36;28.40;;;26.40;;
20505;SDS011;10411;48.148;7.704;2023-03-01T01:18:02;28.10;;;26.10;;
20505;SDS011;10411;48.148;7.704;2023-03-01T01:20:28;30.63;;;28.33;;
20505;SDS011;10411;48.148;7.704;2023-03-01T01:22:54;27.00;;;25.20;;
20505;SDS011;10411;48.148;7.704;2023-03-01T01:25:20;27.77;;;25.77;;
20505;SDS011;10411;48.148;7.704;2023-03-01T01:27:46;26.33;;;24.53;;
20505;SDS011;10411;48.148;7.704;2023-03-01T01:30:12;27.77;;;25.67;;
20505;SDS011;10411;48.148;7.704;2023-03-01T01:32:38;28.13;;;26.13;;
20505;SDS011;10411;48.148;7.704;2023-03-01T01:35:04;27.50;;;25.53;;
20505;SDS011;10411;48.148;7.704;2023-03-01T01:37:30;29.63;;;27.43;;
20505;SDS011;10411;48.148;7.704;2023-03-01T01:39:57;28.70;;;26.60;;
20505;SDS011;10411;48.148;7.704;2023-03-01T01:42:24;27.97;;;25.97;;
20505;SDS011;10411;48.148;7.704;2023-03-01T01:45:15;28.20;;;26.20;;
20505;SDS011;10411;48.148;7.704;2023-03-01T01:47:36;27.53;;;25.63;;
20505;SDS011;10411;48.148;7.704;2023-03-01T01:50:02;27.13;;;25.23;;
20505;SDS011;10411;48.148;7.704;2023-03-01T01:52:31;29.33;;;27.13;;
20505;SDS011;10411;48.148;7.704;2023-03-01T01:55:00;28.57;;;26.47;;
20505;SDS011;10411;48.148;7.704;2023-03-01T01:57:47;28.13;;;26.13;;
20505;SDS011;10411;48.148;7.704;2023-03-01T02:00:16;28.63;;;26.50;;
20505;SDS011;10411;48.148;7.704;2023-03-01T02:02:42;28.80;;;26.70;;
20505;SDS011;10411;48.148;7.704;2023-03-01T02:05:26;27.90;;;26.00;;
20505;SDS011;10411;48.148;7.704;2023-03-01T02:07:54;29.67;;;27.47;;
20505;SDS011;10411;48.148;7.704;2023-03-01T02:10:21;29.50;;;27.23;;
20505;SDS011;10411;48.148;7.704;2023-03-01T02:12:49;29.17;;;27.07;;
20505;SDS011;10411;48.148;7.704;2023-03-01T02:15:15;29.73;;;27.53;;
20505;SDS011;10411;48.148;7.704;2023-03-01T02:17:41;30.67;;;28.23;;
20505;SDS011;10411;48.148;7.704;2023-03-01T02:20:16;29.43;;;27.27;;
20505;SDS011;10411;48.148;7.704;2023-03-01T02:22:44;28.40;;;26.40;;
20505;SDS011;10411;48.148;7.704;2023-03-01T02:30:24;27.57;;;25.57;;
20505;SDS011;10411;48.148;7.704;2023-03-01T02:32:51;27.63;;;25.73;;
20505;SDS011;10411;48.148;7.704;2023-03-01T02:35:17;26.40;;;24.67;;
20505;SDS011;10411;48.148;7.704;2023-03-01T02:37:43;28.50;;;26.30;;
20505;SDS011;10411;48.148;7.704;2023-03-01T02:40:11;27.03;;;25.13;;
20505;SDS011;10411;48.148;7.704;2023-03-01T02:42:41;28.00;;;26.00;;
20505;SDS011;10411;48.148;7.704;2023-03-01T02:45:09;28.47;;;26.47;;
20505;SDS011;10411;48.148;7.704;2023-03-01T02:47:35;27.67;;;25.67;;
20505;SDS011;10411;48.148;7.704;2023-03-01T02:50:01;27.93;;;25.93;;
20505;SDS011;10411;48.148;7.704;2023-03-01T02:52:30;27.07;;;25.17;;
20505;SDS011;10411;48.148;7.704;2023-03-01T02:57:29;28.77;;;26.67;;
20505;SDS011;10411;48.148;7.704;2023-03-01T02:59:57;27.90;;;25.90;;
20505;SDS011;10411;48.148;7.704;2023-03-01T03:02:26;28.07;;;26.07;;
20505;SDS011;10411;48.148;7.704;2023-03-01T03:05:12;28.17;;;26.27;;
20505;SDS011;10411;48.148;7.704;2023-03-01T03:07:40;27.90;;;25.90;;
20505;SDS011;10411;48.148;7.704;2023-03-01T03:10:07;28.23;;;26.17;;
20505;SDS011;10411;48.148;7.704;2023-03-01T03:12:36;28.27;;;26.13;;
20505;SDS011;10411;48.148;7.704;2023-03-01T03:15:02;28.83;;;26.70;;
20505;SDS011;10411;48.148;7.704;2023-03-01T03:17:33;29.27;;;27.07;;
20505;SDS011;10411;48.148;7.704;2023-03-01T03:19:59;29.17;;;27.07;;
20505;SDS011;10411;48.148;7.704;2023-03-01T03:22:25;29.27;;;27.07;;
20505;SDS011;10411;48.148;7.704;2023-03-01T03:24:53;28.13;;;26.10;;
20505;SDS011;10411;48.148;7.704;2023-03-01T03:27:19;28.43;;;26.27;;
20505;SDS011;10411;48.148;7.704;2023-03-01T03:29:45;29.83;;;27.63;;
20505;SDS011;10411;48.148;7.704;2023-03-01T03:32:11;27.20;;;25.23;;
20505;SDS011;10411;48.148;7.704;2023-03-01T03:34:37;27.87;;;25.87;;
20505;SDS011;10411;48.148;7.704;2023-03-01T03:37:03;27.27;;;25.37;;
20505;SDS011;10411;48.148;7.704;2023-03-01T03:39:49;28.13;;;26.07;;
20505;SDS011;10411;48.148;7.704;2023-03-01T03:42:19;29.03;;;26.87;;
20505;SDS011;10411;48.148;7.704;2023-03-01T03:44:45;31.00;;;28.70;;
20505;SDS011;10411;48.148;7.704;2023-03-01T03:47:11;28.93;;;26.83;;
20505;SDS011;10411;48.148;7.704;2023-03-01T03:49:37;28.33;;;26.33;;
20505;SDS011;10411;48.148;7.704;2023-03-01T03:52:03;28.77;;;26.60;;
20505;SDS011;10411;48.148;7.704;2023-03-01T03:54:29;29.13;;;27.03;;
20505;SDS011;10411;48.148;7.704;2023-03-01T03:56:55;28.60;;;26.60;;
20505;SDS011;10411;48.148;7.704;2023-03-01T03:59:21;28.87;;;26.70;;
20505;SDS011;10411;48.148;7.704;2023-03-01T04:01:47;27.23;;;25.33;;
20505;SDS011;10411;48.148;7.704;2023-03-01T04:04:13;27.93;;;25.93;;
20505;SDS011;10411;48.148;7.704;2023-03-01T04:06:42;27.30;;;25.30;;
20505;SDS011;10411;48.148;7.704;2023-03-01T04:09:08;27.53;;;25.63;;
20505;SDS011;10411;48.148;7.704;2023-03-01T04:11:34;27.93;;;25.93;;
20505;SDS011;10411;48.148;7.704;2023-03-01T04:14:00;27.13;;;25.20;;
20505;SDS011;10411;48.148;7.704;2023-03-01T04:16:26;29.13;;;26.93;;
20505;SDS011;10411;48.148;7.704;2023-03-01T04:18:52;27.30;;;25.50;;
20505;SDS011;10411;48.148;7.704;2023-03-01T04:21:18;28.23;;;26.20;;
20505;SDS011;10411;48.148;7.704;2023-03-01T04:23:45;26.90;;;25.00;;
20505;SDS011;10411;48.148;7.704;2023-03-01T04:26:11;27.00;;;25.07;;
20505;SDS011;10411;48.148;7.704;2023-03-01T04:28:41;26.90;;;25.00;;
20505;SDS011;10411;48.148;7.704;2023-03-01T04:31:14;27.30;;;25.50;;
20505;SDS011;10411;48.148;7.704;2023-03-01T04:33:46;27.73;;;25.83;;
20505;SDS011;10411;48.148;7.704;2023-03-01T04:36:12;28.30;;;26.20;;
20505;SDS011;10411;48.148;7.704;2023-03-01T04:38:39;27.93;;;25.93;;
20505;SDS011;10411;48.148;7.704;2023-03-01T04:41:06;26.63;;;24.83;;
20505;SDS011;10411;48.148;7.704;2023-03-01T04:43:32;27.00;;;25.10;;
20505;SDS011;10411;48.148;7.704;2023-03-01T04:46:06;27.97;;;26.07;;
20505;SDS011;10411;48.148;7.704;2023-03-01T04:48:34;26.87;;;24.97;;
20505;SDS011;10411;48.148;7.704;2023-03-01T04:51:00;26.50;;;24.70;;
20505;SDS011;10411;48.148;7.704;2023-03-01T04:53:27;26.30;;;24.40;;
20505;SDS011;10411;48.148;7.704;2023-03-01T04:55:54;27.63;;;25.63;;
20505;SDS011;10411;48.148;7.704;2023-03-01T04:58:21;28.20;;;26.20;;
20505;SDS011;10411;48.148;7.704;2023-03-01T05:00:47;29.00;;;26.90;;
20505;SDS011;10411;48.148;7.704;2023-03-01T05:03:13;27.80;;;25.80;;
20505;SDS011;10411;48.148;7.704;2023-03-01T05:05:42;28.23;;;26.23;;
20505;SDS011;10411;48.148;7.704;2023-03-01T05:08:09;27.77;;;25.67;;
20505;SDS011;10411;48.148;7.704;2023-03-01T05:10:42;28.23;;;26.03;;
20505;SDS011;10411;48.148;7.704;2023-03-01T05:13:08;28.57;;;26.47;;
20505;SDS011;10411;48.148;7.704;2023-03-01T05:15:34;30.10;;;27.77;;
20505;SDS011;10411;48.148;7.704;2023-03-01T05:18:01;29.67;;;27.27;;
20505;SDS011;10411;48.148;7.704;2023-03-01T05:20:30;29.50;;;27.30;;
20505;SDS011;10411;48.148;7.704;2023-03-01T05:22:59;28.60;;;26.50;;
20505;SDS011;10411;48.148;7.704;2023-03-01T05:25:25;27.37;;;25.47;;
20505;SDS011;10411;48.148;7.704;2023-03-01T05:27:51;29.57;;;27.37;;
20505;SDS011;10411;48.148;7.704;2023-03-01T05:30:17;29.90;;;27.47;;
20505;SDS011;10411;48.148;7.704;2023-03-01T05:32:47;29.87;;;27.67;;
20505;SDS011;10411;48.148;7.704;2023-03-01T05:35:14;31.50;;;29.00;;
20505;SDS011;10411;48.148;7.704;2023-03-01T05:37:42;29.90;;;27.70;;
20505;SDS011;10411;48.148;7.704;2023-03-01T05:40:09;29.40;;;27.13;;
20505;SDS011;10411;48.148;7.704;2023-03-01T05:42:40;29.50;;;27.30;;
20505;SDS011;10411;48.148;7.704;2023-03-01T05:45:06;27.77;;;25.77;;
20505;SDS011;10411;48.148;7.704;2023-03-01T05:47:34;27.77;;;25.77;;
20505;SDS011;10411;48.148;7.704;2023-03-01T05:50:00;28.43;;;26.33;;
20505;SDS011;10411;48.148;7.704;2023-03-01T05:52:26;27.47;;;25.53;;
20505;SDS011;10411;48.148;7.704;2023-03-01T05:54:52;28.07;;;26.07;;
20505;SDS011;10411;48.148;7.704;2023-03-01T05:57:18;29.13;;;26.93;;
20505;SDS011;10411;48.148;7.704;2023-03-01T05:59:45;27.03;;;25.13;;
20505;SDS011;10411;48.148;7.704;2023-03-01T06:02:11;28.50;;;26.40;;
20505;SDS011;10411;48.148;7.704;2023-03-01T06:04:37;28.30;;;26.30;;
20505;SDS011;10411;48.148;7.704;2023-03-01T06:07:03;30.93;;;28.53;;
20505;SDS011;10411;48.148;7.704;2023-03-01T06:09:29;28.50;;;26.40;;
20505;SDS011;10411;48.148;7.704;2023-03-01T06:11:55;29.90;;;27.70;;
20505;SDS011;10411;48.148;7.704;2023-03-01T06:14:21;30.40;;;28.00;;
20505;SDS011;10411;48.148;7.704;2023-03-01T06:16:46;29.67;;;27.47;;
20505;SDS011;10411;48.148;7.704;2023-03-01T06:19:12;33.20;;;30.50;;
20505;SDS011;10411;48.148;7.704;2023-03-01T06:21:38;31.67;;;29.23;;
20505;SDS011;10411;48.148;7.704;2023-03-01T06:24:04;31.17;;;28.77;;
20505;SDS011;10411;48.148;7.704;2023-03-01T06:26:32;30.13;;;27.83;;
20505;SDS011;10411;48.148;7.704;2023-03-01T06:28:58;30.00;;;27.73;;
20505;SDS011;10411;48.148;7.704;2023-03-01T06:31:24;28.07;;;25.97;;
20505;SDS011;10411;48.148;7.704;2023-03-01T06:33:50;29.00;;;26.80;;
20505;SDS011;10411;48.148;7.704;2023-03-01T06:36:16;28.70;;;26.60;;
20505;SDS011;10411;48.148;7.704;2023-03-01T06:38:46;29.40;;;27.20;;
20505;SDS011;10411;48.148;7.704;2023-03-01T06:41:12;31.97;;;29.57;;
20505;SDS011;10411;48.148;7.704;2023-03-01T06:43:38;33.20;;;30.40;;
20505;SDS011;10411;48.148;7.704;2023-03-01T06:46:04;31.27;;;28.87;;
20505;SDS011;10411;48.148;7.704;2023-03-01T06:48:31;33.27;;;30.57;;
20505;SDS011;10411;48.148;7.704;2023-03-01T06:50:58;31.63;;;29.03;;
20505;SDS011;10411;48.148;7.704;2023-03-01T06:53:25;30.77;;;28.47;;
20505;SDS011;10411;48.148;7.704;2023-03-01T06:55:58;33.03;;;30.00;;
20505;SDS011;10411;48.148;7.704;2023-03-01T06:58:25;29.07;;;26.87;;
20505;SDS011;10411;48.148;7.704;2023-03-01T07:00:51;28.97;;;26.73;;
20505;SDS011;10411;48.148;7.704;2023-03-01T07:30:39;28.57;;;26.23;;
20505;SDS011;10411;48.148;7.704;2023-03-01T07:33:05;31.13;;;28.57;;
20505;SDS011;10411;48.148;7.704;2023-03-01T07:35:42;32.07;;;29.47;;
20505;SDS011;10411;48.148;7.704;2023-03-01T07:38:16;31.23;;;28.73;;
20505;SDS011;10411;48.148;7.704;2023-03-01T07:41:00;32.63;;;29.93;;
20505;SDS011;10411;48.148;7.704;2023-03-01T07:43:32;29.20;;;26.90;;
20505;SDS011;10411;48.148;7.704;2023-03-01T07:49:10;31.27;;;28.47;;
20505;SDS011;10411;48.148;7.704;2023-03-01T07:51:38;39.17;;;35.07;;
20505;SDS011;10411;48.148;7.704;2023-03-01T07:54:12;35.93;;;32.53;;
20505;SDS011;10411;48.148;7.704;2023-03-01T07:56:46;34.13;;;31.10;;
20505;SDS011;10411;48.148;7.704;2023-03-01T07:59:16;31.43;;;28.90;;
20505;SDS011;10411;48.148;7.704;2023-03-01T08:01:42;30.83;;;28.43;;
20505;SDS011;10411;48.148;7.704;2023-03-01T08:04:08;32.33;;;29.73;;
20505;SDS011;10411;48.148;7.704;2023-03-01T08:06:35;29.23;;;26.90;;
20505;SDS011;10411;48.148;7.704;2023-03-01T08:09:04;31.10;;;28.70;;
20505;SDS011;10411;48.148;7.704;2023-03-01T08:11:33;30.87;;;28.53;;
20505;SDS011;10411;48.148;7.704;2023-03-01T08:14:02;30.20;;;27.87;;
20505;SDS011;10411;48.148;7.704;2023-03-01T08:16:33;29.73;;;27.53;;
20505;SDS011;10411;48.148;7.704;2023-03-01T08:19:15;29.10;;;26.60;;
20505;SDS011;10411;48.148;7.704;2023-03-01T08:21:43;30.47;;;28.17;;
20505;SDS011;10411;48.148;7.704;2023-03-01T08:24:15;32.30;;;29.57;;
20505;SDS011;10411;48.148;7.704;2023-03-01T08:26:54;32.03;;;29.43;;
20505;SDS011;10411;48.148;7.704;2023-03-01T08:29:23;31.17;;;28.67;;
20505;SDS011;10411;48.148;7.704;2023-03-01T08:31:50;33.53;;;30.77;;
20505;SDS011;10411;48.148;7.704;2023-03-01T08:34:18;32.80;;;30.20;;
20505;SDS011;10411;48.148;7.704;2023-03-01T08:36:44;30.87;;;28.43;;
20505;SDS011;10411;48.148;7.704;2023-03-01T08:39:22;30.03;;;27.60;;
20505;SDS011;10411;48.148;7.704;2023-03-01T08:41:51;32.13;;;29.53;;
20505;SDS011;10411;48.148;7.704;2023-03-01T08:44:25;34.10;;;31.10;;
20505;SDS011;10411;48.148;7.704;2023-03-01T08:46:56;30.60;;;28.27;;
20505;SDS011;10411;48.148;7.704;2023-03-01T08:49:33;30.07;;;27.67;;
20505;SDS011;10411;48.148;7.704;2023-03-01T08:54:35;29.20;;;26.97;;
20505;SDS011;10411;48.148;7.704;2023-03-01T08:57:27;31.17;;;28.77;;
20505;SDS011;10411;48.148;7.704;2023-03-01T08:59:53;30.23;;;27.97;;
20505;SDS011;10411;48.148;7.704;2023-03-01T09:02:23;32.90;;;30.17;;
20505;SDS011;10411;48.148;7.704;2023-03-01T09:04:55;34.83;;;31.83;;
20505;SDS011;10411;48.148;7.704;2023-03-01T09:07:23;31.43;;;29.03;;
20505;SDS011;10411;48.148;7.704;2023-03-01T09:09:53;34.70;;;31.83;;
20505;SDS011;10411;48.148;7.704;2023-03-01T09:12:19;35.03;;;32.13;;
20505;SDS011;10411;48.148;7.704;2023-03-01T09:14:45;33.63;;;30.83;;
20505;SDS011;10411;48.148;7.704;2023-03-01T09:17:14;34.70;;;31.80;;
20505;SDS011;10411;48.148;7.704;2023-03-01T09:19:39;32.63;;;29.93;;
20505;SDS011;10411;48.148;7.704;2023-03-01T09:22:08;34.93;;;31.87;;
20505;SDS011;10411;48.148;7.704;2023-03-01T09:24:57;35.50;;;32.50;;
20505;SDS011;10411;48.148;7.704;2023-03-01T09:30:32;32.47;;;29.93;;
20505;SDS011;10411;48.148;7.704;2023-03-01T09:32:58;34.03;;;31.33;;
20505;SDS011;10411;48.148;7.704;2023-03-01T09:35:24;32.60;;;29.97;;
20505;SDS011;10411;48.148;7.704;2023-03-01T09:37:54;34.17;;;31.37;;
20505;SDS011;10411;48.148;7.704;2023-03-01T09:40:24;34.20;;;31.20;;
20505;SDS011;10411;48.148;7.704;2023-03-01T09:45:59;34.03;;;30.90;;
20505;SDS011;10411;48.148;7.704;2023-03-01T09:48:29;33.07;;;30.23;;
20505;SDS011;10411;48.148;7.704;2023-03-01T09:50:58;33.70;;;30.73;;
20505;SDS011;10411;48.148;7.704;2023-03-01T09:53:31;37.67;;;34.37;;
20505;SDS011;10411;48.148;7.704;2023-03-01T09:58:47;36.70;;;33.43;;
20505;SDS011;10411;48.148;7.704;2023-03-01T10:06:46;34.53;;;31.50;;
20505;SDS011;10411;48.148;7.704;2023-03-01T10:09:17;32.03;;;29.43;;
20505;SDS011;10411;48.148;7.704;2023-03-01T10:11:48;39.13;;;35.33;;
20505;SDS011;10411;48.148;7.704;2023-03-01T10:14:29;34.23;;;31.33;;
20505;SDS011;10411;48.148;7.704;2023-03-01T10:17:08;37.37;;;33.97;;
20505;SDS011;10411;48.148;7.704;2023-03-01T10:19:44;35.33;;;32.33;;
20505;SDS011;10411;48.148;7.704;2023-03-01T10:22:17;37.90;;;34.67;;
20505;SDS011;10411;48.148;7.704;2023-03-01T10:24:46;40.17;;;36.53;;
20505;SDS011;10411;48.148;7.704;2023-03-01T10:27:22;39.80;;;36.20;;
20505;SDS011;10411;48.148;7.704;2023-03-01T10:29:56;36.20;;;33.10;;
20505;SDS011;10411;48.148;7.704;2023-03-01T10:32:27;33.07;;;30.33;;
20505;SDS011;10411;48.148;7.704;2023-03-01T10:34:53;35.17;;;32.17;;
20505;SDS011;10411;48.148;7.704;2023-03-01T10:37:19;32.30;;;29.77;;
20505;SDS011;10411;48.148;7.704;2023-03-01T10:39:58;35.33;;;32.53;;
20505;SDS011;10411;48.148;7.704;2023-03-01T10:42:29;35.03;;;32.13;;
20505;SDS011;10411;48.148;7.704;2023-03-01T10:44:56;33.60;;;30.70;;
20505;SDS011;10411;48.148;7.704;2023-03-01T10:47:23;36.50;;;33.30;;
20505;SDS011;10411;48.148;7.704;2023-03-01T10:49:51;35.83;;;32.80;;
20505;SDS011;10411;48.148;7.704;2023-03-01T10:52:18;31.30;;;28.87;;
20505;SDS011;10411;48.148;7.704;2023-03-01T10:54:55;33.60;;;30.60;;
20505;SDS011;10411;48.148;7.704;2023-03-01T10:57:31;31.60;;;29.10;;
20505;SDS011;10411;48.148;7.704;2023-03-01T11:00:10;31.83;;;29.23;;
20505;SDS011;10411;48.148;7.704;2023-03-01T11:02:41;29.47;;;27.17;;
20505;SDS011;10411;48.148;7.704;2023-03-01T11:10:16;37.97;;;34.37;;
20505;SDS011;10411;48.148;7.704;2023-03-01T11:12:42;37.67;;;34.30;;
20505;SDS011;10411;48.148;7.704;2023-03-01T11:15:15;33.77;;;31.00;;
20505;SDS011;10411;48.148;7.704;2023-03-01T11:17:45;38.00;;;34.60;;
20505;SDS011;10411;48.148;7.704;2023-03-01T11:22:45;36.33;;;33.13;;
20505;SDS011;10411;48.148;7.704;2023-03-01T11:25:13;38.37;;;34.80;;
20505;SDS011;10411;48.148;7.704;2023-03-01T11:27:40;36.60;;;33.40;;
20505;SDS011;10411;48.148;7.704;2023-03-01T11:30:13;35.87;;;32.77;;
20505;SDS011;10411;48.148;7.704;2023-03-01T11:32:40;38.20;;;34.77;;
20505;SDS011;10411;48.148;7.704;2023-03-01T11:35:13;38.40;;;34.83;;
20505;SDS011;10411;48.148;7.704;2023-03-01T11:40:16;37.17;;;33.97;;
20505;SDS011;10411;48.148;7.704;2023-03-01T11:42:50;36.97;;;33.70;;
20505;SDS011;10411;48.148;7.704;2023-03-01T11:45:17;36.73;;;33.33;;
20505;SDS011;10411;48.148;7.704;2023-03-01T11:55:54;37.83;;;34.33;;
20505;SDS011;10411;48.148;7.704;2023-03-01T11:58:32;36.13;;;33.07;;
20505;SDS011;10411;48.148;7.704;2023-03-01T12:07:15;39.10;;;35.50;;
20505;SDS011;10411;48.148;7.704;2023-03-01T12:16:56;37.17;;;33.80;;
20505;SDS011;10411;48.148;7.704;2023-03-01T12:24:41;37.63;;;34.23;;
20505;SDS011;10411;48.148;7.704;2023-03-01T12:27:33;35.67;;;32.57;;
20505;SDS011;10411;48.148;7.704;2023-03-01T12:30:24;34.40;;;31.50;;
20505;SDS011;10411;48.148;7.704;2023-03-01T12:50:40;38.40;;;34.90;;
20505;SDS011;10411;48.148;7.704;2023-03-01T12:53:10;36.70;;;33.47;;
20505;SDS011;10411;48.148;7.704;2023-03-01T12:55:42;33.87;;;31.07;;
20505;SDS011;10411;48.148;7.704;2023-03-01T12:58:25;34.03;;;31.23;;
20505;SDS011;10411;48.148;7.704;2023-03-01T13:09:14;39.03;;;35.63;;
20505;SDS011;10411;48.148;7.704;2023-03-01T13:11:41;36.87;;;33.67;;
20505;SDS011;10411;48.148;7.704;2023-03-01T13:16:46;36.70;;;33.47;;
20505;SDS011;10411;48.148;7.704;2023-03-01T13:19:19;36.43;;;33.27;;
20505;SDS011;10411;48.148;7.704;2023-03-01T13:21:46;37.47;;;34.17;;
20505;SDS011;10411;48.148;7.704;2023-03-01T13:27:32;36.67;;;33.57;;
20505;SDS011;10411;48.148;7.704;2023-03-01T13:29:49;39.30;;;35.77;;
20505;SDS011;10411;48.148;7.704;2023-03-01T13:34:46;38.83;;;35.23;;
20505;SDS011;10411;48.148;7.704;2023-03-01T13:37:25;34.90;;;32.10;;
20505;SDS011;10411;48.148;7.704;2023-03-01T13:39:54;38.22;;;34.92;;
20505;SDS011;10411;48.148;7.704;2023-03-01T13:42:33;39.07;;;35.53;;
20505;SDS011;10411;48.148;7.704;2023-03-01T13:45:00;39.10;;;35.70;;
20505;SDS011;10411;48.148;7.704;2023-03-01T13:47:26;34.17;;;31.33;;
20505;SDS011;10411;48.148;7.704;2023-03-01T13:49:56;33.93;;;30.93;;
20505;SDS011;10411;48.148;7.704;2023-03-01T14:19:18;35.17;;;32.27;;
20505;SDS011;10411;48.148;7.704;2023-03-01T14:21:58;38.67;;;35.27;;
20505;SDS011;10411;48.148;7.704;2023-03-01T14:24:27;40.63;;;36.93;;
20505;SDS011;10411;48.148;7.704;2023-03-01T14:26:53;38.90;;;35.33;;
20505;SDS011;10411;48.148;7.704;2023-03-01T14:29:23;40.93;;;37.10;;
20505;SDS011;10411;48.148;7.704;2023-03-01T14:31:50;38.67;;;35.33;;
20505;SDS011;10411;48.148;7.704;2023-03-01T14:34:18;38.20;;;34.80;;
20505;SDS011;10411;48.148;7.704;2023-03-01T14:36:45;37.90;;;34.57;;
20505;SDS011;10411;48.148;7.704;2023-03-01T14:39:24;39.67;;;36.00;;
20505;SDS011;10411;48.148;7.704;2023-03-01T14:41:51;40.97;;;37.17;;
20505;SDS011;10411;48.148;7.704;2023-03-01T14:44:21;41.93;;;37.90;;
20505;SDS011;10411;48.148;7.704;2023-03-01T14:46:51;41.33;;;37.37;;
20505;SDS011;10411;48.148;7.704;2023-03-01T14:49:25;38.43;;;34.80;;
20505;SDS011;10411;48.148;7.704;2023-03-01T14:51:53;40.10;;;36.60;;
20505;SDS011;10411;48.148;7.704;2023-03-01T14:54:24;38.60;;;35.17;;
20505;SDS011;10411;48.148;7.704;2023-03-01T14:56:51;36.33;;;33.13;;
20505;SDS011;10411;48.148;7.704;2023-03-01T14:59:19;39.70;;;35.90;;
20505;SDS011;10411;48.148;7.704;2023-03-01T15:01:45;41.10;;;37.23;;
20505;SDS011;10411;48.148;7.704;2023-03-01T15:04:12;35.30;;;32.17;;
20505;SDS011;10411;48.148;7.704;2023-03-01T15:06:38;41.10;;;37.33;;
20505;SDS011;10411;48.148;7.704;2023-03-01T15:09:04;41.70;;;37.80;;
20505;SDS011;10411;48.148;7.704;2023-03-01T15:11:31;39.90;;;36.30;;
20505;SDS011;10411;48.148;7.704;2023-03-01T15:13:58;38.67;;;35.20;;
20505;SDS011;10411;48.148;7.704;2023-03-01T15:16:25;39.33;;;35.83;;
20505;SDS011;10411;48.148;7.704;2023-03-01T15:18:53;40.03;;;36.30;;
20505;SDS011;10411;48.148;7.704;2023-03-01T15:21:21;40.07;;;36.40;;
20505;SDS011;10411;48.148;7.704;2023-03-01T15:23:51;39.87;;;36.30;;
20505;SDS011;10411;48.148;7.704;2023-03-01T15:26:26;42.33;;;38.37;;
20505;SDS011;10411;48.148;7.704;2023-03-01T15:28:54;39.63;;;36.07;;
20505;SDS011;10411;48.148;7.704;2023-03-01T15:31:24;37.90;;;34.50;;
20505;SDS011;10411;48.148;7.704;2023-03-01T15:33:50;39.17;;;35.57;;
20505;SDS011;10411;48.148;7.704;2023-03-01T15:36:31;42.90;;;38.87;;
20505;SDS011;10411;48.148;7.704;2023-03-01T15:38:58;39.63;;;36.23;;
20505;SDS011;10411;48.148;7.704;2023-03-01T15:46:35;42.17;;;38.27;;
20505;SDS011;10411;48.148;7.704;2023-03-01T15:49:17;39.27;;;35.73;;
20505;SDS011;10411;48.148;7.704;2023-03-01T15:51:45;40.47;;;36.57;;
20505;SDS011;10411;48.148;7.704;2023-03-01T15:54:17;41.37;;;37.37;;
20505;SDS011;10411;48.148;7.704;2023-03-01T15:56:43;39.60;;;36.00;;
20505;SDS011;10411;48.148;7.704;2023-03-01T15:59:09;35.67;;;32.57;;
20505;SDS011;10411;48.148;7.704;2023-03-01T16:01:38;39.30;;;35.80;;
20505;SDS011;10411;48.148;7.704;2023-03-01T16:04:04;40.10;;;36.37;;
20505;SDS011;10411;48.148;7.704;2023-03-01T16:06:30;40.80;;;37.00;;
20505;SDS011;10411;48.148;7.704;2023-03-01T16:08:56;39.73;;;36.23;;
20505;SDS011;10411;48.148;7.704;2023-03-01T16:11:22;39.15;;;35.83;;
20505;SDS011;10411;48.148;7.704;2023-03-01T16:13:48;41.10;;;37.30;;
20505;SDS011;10411;48.148;7.704;2023-03-01T16:16:14;39.47;;;35.87;;
20505;SDS011;10411;48.148;7.704;2023-03-01T16:18:47;37.97;;;34.77;;
20505;SDS011;10411;48.148;7.704;2023-03-01T16:21:20;41.17;;;37.43;;
20505;SDS011;10411;48.148;7.704;2023-03-01T16:23:46;37.47;;;34.17;;
20505;SDS011;10411;48.148;7.704;2023-03-01T16:26:12;40.10;;;36.30;;
20505;SDS011;10411;48.148;7.704;2023-03-01T16:28:40;38.60;;;35.10;;
20505;SDS011;10411;48.148;7.704;2023-03-01T16:31:06;39.63;;;36.10;;
20505;SDS011;10411;48.148;7.704;2023-03-01T16:33:32;40.70;;;37.00;;
20505;SDS011;10411;48.148;7.704;2023-03-01T16:35:59;39.17;;;35.73;;
20505;SDS011;10411;48.148;7.704;2023-03-01T16:38:26;41.83;;;37.87;;
20505;SDS011;10411;48.148;7.704;2023-03-01T16:40:52;39.35;;;36.05;;
20505;SDS011;10411;48.148;7.704;2023-03-01T16:43:19;38.60;;;35.20;;
20505;SDS011;10411;48.148;7.704;2023-03-01T16:45:45;40.23;;;36.63;;
20505;SDS011;10411;48.148;7.704;2023-03-01T16:48:11;39.57;;;36.03;;
20505;SDS011;10411;48.148;7.704;2023-03-01T16:50:37;37.33;;;34.00;;
20505;SDS011;10411;48.148;7.704;2023-03-01T16:53:03;38.50;;;35.10;;
20505;SDS011;10411;48.148;7.704;2023-03-01T16:55:29;42.23;;;38.23;;
20505;SDS011;10411;48.148;7.704;2023-03-01T16:57:55;41.13;;;37.30;;
20505;SDS011;10411;48.148;7.704;2023-03-01T17:00:21;39.20;;;35.57;;
20505;SDS011;10411;48.148;7.704;2023-03-01T17:02:47;40.40;;;36.63;;
20505;SDS011;10411;48.148;7.704;2023-03-01T17:05:13;39.17;;;35.50;;
20505;SDS011;10411;48.148;7.704;2023-03-01T17:07:39;37.43;;;34.07;;
20505;SDS011;10411;48.148;7.704;2023-03-01T17:10:06;40.10;;;36.53;;
20505;SDS011;10411;48.148;7.704;2023-03-01T17:12:33;42.40;;;38.17;;
20505;SDS011;10411;48.148;7.704;2023-03-01T17:14:59;39.30;;;35.70;;
20505;SDS011;10411;48.148;7.704;2023-03-01T17:17:25;39.33;;;35.50;;
20505;SDS011;10411;48.148;7.704;2023-03-01T17:19:51;39.47;;;35.87;;
20505;SDS011;10411;48.148;7.704;2023-03-01T17:22:18;36.77;;;33.50;;
20505;SDS011;10411;48.148;7.704;2023-03-01T17:24:44;40.37;;;36.33;;